SGEN

Encarnación Airport

Encarnación, Paraguay
TAF SGEN 231652Z 2312/2412 18013KT 9999 BKN018 OVC070 TX28/2319Z TN20/2409Z PROB30 2319/2321 7000 RA BKN024 BECMG 2322/2400 09005KT 9999 SCT027 BECMG 2402/2405 00000KT CAVOK
Issued Valid From Valid To
Apr-23 @ 16:52 UTC
(6 hours ago)
Apr-23 @ 12:00 UTC
(11 hours ago)
Apr-24 @ 12:00 UTC
(in 13 hours)
Expired Click to View Apr-23 @ 12:00 to Apr-23 @ 22:00
TAF SGEN 231652Z 2312/2412 18013KT 9999 BKN018 OVC070 TX28/2319Z TN20/2409Z
Wind Visibility Clouds
180° at 13 knots 10,000+ meters
  • Broken at 1,800' AGL
  • Overcast at 7,000' AGL
Expired Click to View Apr-23 @ 19:00 to Apr-23 @ 21:00
PROB30 2319/2321 7000 RA BKN024
Visibility Clouds Conditions
7,001 meters
  • Broken at 2,400' AGL
  • Rain
Becoming Apr-23 @ 22:00 to Apr-24 @ 02:00
BECMG 2322/2400 09005KT 9999 SCT027
Wind Visibility Clouds
90° at 5 knots 10,000+ meters
  • Scattered at 2,700' AGL
Becoming Apr-24 @ 02:00 to Apr-24 @ 12:00
BECMG 2402/2405 00000KT CAVOK
Visibility Clouds Conditions
10,000+ meters
  • No significant clouds
TAF SGEN 231652Z 2312/2412 18013KT 9999 BKN018 OVC070 TX28/2319Z TN20/2409Z PROB30 2319/2321 7000 RA BKN024 BECMG 2322/2400 09005KT 9999 SCT027 BECMG 2402/2405 00000KT CAVOK
Issued Apr-23 @ 16:52 UTC
(6 hours ago)
Valid From Apr-23 @ 12:00 UTC
(11 hours ago)
Valid To Apr-24 @ 12:00 UTC
(in 13 hours)
Apr-23 @ 12:00 - Apr-23 @ 22:00
Wind Visibility
180° at 13 knots 10,000+ meters
Clouds
  • Broken at 1,800' AGL
  • Overcast at 7,000' AGL
Apr-23 @ 19:00 - Apr-23 @ 21:00
Clouds
  • Broken at 2,400' AGL
Conditions
  • Rain
Becoming Apr-23 @ 22:00 - Apr-24 @ 02:00
Wind Visibility
90° at 5 knots 10,000+ meters
Clouds
  • Scattered at 2,700' AGL
Becoming Apr-24 @ 02:00 - Apr-24 @ 12:00
Clouds
  • No significant clouds
Conditions